Mount Pleasant Mills, Pennsylvania
Current Conditions -  °F | °C
As of 8:53 AM on Friday 31 Oct 2014 (Local Time) from KSEG Reporting Station
Overcast Overcast  
Wind Chill: 41°   Ceiling: 5500
Heat Index: 41°   Visibility: 10mi
Dew Point: 38°   Wind: 0mph
Humidity: 89%   Direction: NA
Pressure: 30.02"   Gusts: NA
Location:  40.72°N, 77.02°W
Report Text: KSEG 311253Z AUTO 00000KT 10SM OVC055 05/03 A3002 RMK AO2 SLP169 T00500033
Loading
Personal Weather Stations






























Interactive Weather Map
Tropical Storm Tracking
New forecast layout! Learn more

10-Day Weather Forecast

Advertisements
Track Severe Weather on mobile